createdAt,value
2024-01-14T00:00:12.214Z,97183.72
2024-01-14T00:02:40.055Z,97182.75
2024-01-14T00:05:07.927Z,97182.25
2024-01-14T00:07:34.976Z,97177.16
2024-01-14T00:10:01.730Z,97170.56
2024-01-14T00:12:28.582Z,97175.69
2024-01-14T00:14:55.470Z,97161.09
2024-01-14T00:17:22.314Z,97161.59
2024-01-14T00:19:49.270Z,97159.41
2024-01-14T00:22:17.733Z,97162.09
2024-01-14T00:24:45.947Z,97159.16
2024-01-14T00:27:13.537Z,97156.25
2024-01-14T00:29:41.180Z,97150.63
2024-01-14T00:32:08.493Z,97138.97
2024-01-14T00:34:35.677Z,97134.84
2024-01-14T00:37:02.545Z,97126.78
2024-01-14T00:39:30.128Z,97118.50
2024-01-14T00:41:57.031Z,97116.31
2024-01-14T00:44:27.256Z,97117.53
2024-01-14T00:46:54.409Z,97112.19
2024-01-14T00:49:21.186Z,97112.69
2024-01-14T00:51:48.061Z,97106.09
2024-01-14T00:54:14.863Z,97107.34
2024-01-14T00:56:42.878Z,97110.00
2024-01-14T00:59:09.568Z,97108.53
2024-01-14T01:01:36.361Z,97104.66
2024-01-14T01:04:03.234Z,97094.66
2024-01-14T01:06:30.339Z,97095.88
2024-01-14T01:08:57.235Z,97101.25
2024-01-14T01:11:23.999Z,97106.09
2024-01-14T01:13:50.836Z,97105.38
2024-01-14T01:16:17.529Z,97102.44
2024-01-14T01:18:44.457Z,97092.47
2024-01-14T01:21:11.339Z,97098.09
2024-01-14T01:23:38.431Z,97092.47
2024-01-14T01:26:05.324Z,97094.91
2024-01-14T01:28:32.034Z,97094.19
2024-01-14T01:30:58.885Z,97104.16
2024-01-14T01:33:25.787Z,97101.97
2024-01-14T01:35:52.575Z,97102.72
2024-01-14T01:38:19.440Z,97101.97
2024-01-14T01:40:47.488Z,97093.69
2024-01-14T01:43:14.601Z,97091.75
2024-01-14T01:45:41.278Z,97093.69
2024-01-14T01:48:08.467Z,97088.34
2024-01-14T01:50:37.416Z,97082.25
2024-01-14T01:53:04.676Z,97082.25
2024-01-14T01:55:31.301Z,97074.94
2024-01-14T01:57:58.134Z,97082.97
2024-01-14T02:00:24.823Z,97074.94
2024-01-14T02:02:51.980Z,97073.72
2024-01-14T02:05:20.511Z,97073.00
2024-01-14T02:07:47.336Z,97063.50
2024-01-14T02:10:13.972Z,97050.13
2024-01-14T02:12:40.691Z,97047.44
2024-01-14T02:15:07.777Z,97049.38
2024-01-14T02:17:34.613Z,97044.53
2024-01-14T02:20:01.281Z,97035.28
2024-01-14T02:22:30.141Z,97037.94
2024-01-14T02:24:56.875Z,97020.91
2024-01-14T02:27:24.111Z,97024.81
2024-01-14T02:29:51.188Z,97024.09
2024-01-14T02:32:18.794Z,97011.91
2024-01-14T02:34:45.684Z,97011.69
2024-01-14T02:37:12.442Z,97014.84
2024-01-14T02:39:39.256Z,97005.13
2024-01-14T02:42:06.243Z,96999.03
2024-01-14T02:44:33.136Z,96990.75
2024-01-14T02:47:00.083Z,96993.22
2024-01-14T02:49:28.282Z,96989.56
2024-01-14T02:51:55.211Z,96985.41
2024-01-14T02:54:21.912Z,96988.34
2024-01-14T02:56:48.800Z,96991.50
2024-01-14T02:59:15.553Z,96989.56
2024-01-14T03:01:49.312Z,96987.16
2024-01-14T03:04:16.276Z,96991.31
2024-01-14T03:06:43.087Z,96991.56
2024-01-14T03:09:10.409Z,96986.94
2024-01-14T03:11:37.287Z,96992.53
2024-01-14T03:14:04.083Z,96998.16
2024-01-14T03:16:31.027Z,97006.41
2024-01-14T03:18:57.862Z,96995.94
2024-01-14T03:21:24.666Z,96998.88
2024-01-14T03:23:51.357Z,96996.94
2024-01-14T03:26:18.026Z,96997.19
2024-01-14T03:28:44.689Z,97009.81
2024-01-14T03:31:18.139Z,97009.59
2024-01-14T03:33:45.162Z,97009.81
2024-01-14T03:36:15.955Z,97008.59
2024-01-14T03:38:43.480Z,97012.25
2024-01-14T03:41:10.179Z,97014.19
2024-01-14T03:43:37.076Z,97006.66
2024-01-14T03:46:03.893Z,97008.13
2024-01-14T03:48:49.123Z,97004.25
2024-01-14T03:51:16.066Z,97001.31
2024-01-14T03:53:42.793Z,96996.44
2024-01-14T03:56:09.545Z,96999.13
2024-01-14T03:58:36.456Z,96994.50
2024-01-14T04:01:03.133Z,96990.59
2024-01-14T04:03:29.968Z,96985.53
2024-01-14T04:05:57.121Z,96983.81
2024-01-14T04:08:23.899Z,96988.66
2024-01-14T04:10:50.661Z,96986.97
2024-01-14T04:13:17.469Z,96979.19
2024-01-14T04:15:44.223Z,96985.50
2024-01-14T04:18:11.101Z,96977.00
2024-01-14T04:20:37.923Z,96971.88
2024-01-14T04:23:04.591Z,96966.78
2024-01-14T04:25:33.547Z,96965.78
2024-01-14T04:28:00.806Z,96958.50
2024-01-14T04:30:27.712Z,96959.47
2024-01-14T04:32:54.538Z,96954.34
2024-01-14T04:35:21.304Z,96954.63
2024-01-14T04:37:47.919Z,96947.53
2024-01-14T04:40:14.742Z,96946.81
2024-01-14T04:42:41.405Z,96944.38
2024-01-14T04:45:08.887Z,96938.53
2024-01-14T04:47:35.671Z,96932.47
2024-01-14T04:50:02.790Z,96939.78
2024-01-14T04:52:29.504Z,96935.59
2024-01-14T04:54:56.213Z,96935.16
2024-01-14T04:57:22.966Z,96932.94
2024-01-14T04:59:49.732Z,96938.28
2024-01-14T05:02:16.505Z,96928.09
2024-01-14T05:04:43.195Z,96928.09
2024-01-14T05:07:09.808Z,96929.31
2024-01-14T05:09:36.685Z,96926.66
2024-01-14T05:12:03.636Z,96926.16
2024-01-14T05:14:30.416Z,96927.38
2024-01-14T05:16:57.129Z,96935.16
2024-01-14T05:19:24.311Z,96929.56
2024-01-14T05:21:54.350Z,96934.19
2024-01-14T05:24:21.220Z,96922.53
2024-01-14T05:26:47.856Z,96932.00
2024-01-14T05:29:14.643Z,96923.97
2024-01-14T05:31:41.513Z,96922.53
2024-01-14T05:34:08.336Z,96917.66
2024-01-14T05:36:35.908Z,96923.00
2024-01-14T05:39:02.646Z,96930.28
2024-01-14T05:41:29.343Z,96934.44
2024-01-14T05:43:56.043Z,96923.00
2024-01-14T05:46:22.704Z,96921.78
2024-01-14T05:48:49.616Z,96913.75
2024-01-14T05:51:16.450Z,96913.75
2024-01-14T05:53:43.301Z,96905.72
2024-01-14T05:56:10.070Z,96901.13
2024-01-14T05:58:36.876Z,96901.84
2024-01-14T06:01:04.494Z,96897.97
2024-01-14T06:03:31.248Z,96902.09
2024-01-14T06:05:58.094Z,96903.53
2024-01-14T06:08:24.924Z,96891.59
2024-01-14T06:10:51.566Z,96884.34
2024-01-14T06:13:18.300Z,96888.47
2024-01-14T06:15:45.010Z,96891.38
2024-01-14T06:18:11.992Z,96892.09
2024-01-14T06:20:38.885Z,96892.81
2024-01-14T06:23:05.942Z,96897.69
2024-01-14T06:25:32.741Z,96896.47
2024-01-14T06:27:59.371Z,96894.53
2024-01-14T06:30:26.227Z,96886.50
2024-01-14T06:32:56.622Z,96890.63
2024-01-14T06:35:23.428Z,96879.91
2024-01-14T06:37:51.546Z,96889.41
2024-01-14T06:40:24.144Z,96890.84
2024-01-14T06:42:55.575Z,96895.47
2024-01-14T06:45:22.440Z,96887.44
2024-01-14T06:47:49.328Z,96893.06
2024-01-14T06:50:16.892Z,96884.31
2024-01-14T06:52:43.804Z,96883.81
2024-01-14T06:55:12.882Z,96882.56
2024-01-14T06:57:40.099Z,96881.34
2024-01-14T07:00:09.635Z,96884.75
2024-01-14T07:02:36.667Z,96883.56
2024-01-14T07:05:04.228Z,96875.28
2024-01-14T07:07:30.999Z,96878.44
2024-01-14T07:09:57.700Z,96872.38
2024-01-14T07:12:25.744Z,96871.66
2024-01-14T07:14:52.802Z,96868.97
2024-01-14T07:17:20.323Z,96854.88
2024-01-14T07:19:47.212Z,96853.66
2024-01-14T07:22:14.163Z,96859.00
2024-01-14T07:24:40.868Z,96858.28
2024-01-14T07:27:07.669Z,96864.38
2024-01-14T07:29:34.307Z,96863.00
2024-01-14T07:32:04.359Z,96854.97
2024-01-14T07:34:33.344Z,96842.94
2024-01-14T07:37:00.081Z,96838.06
2024-01-14T07:39:27.108Z,96840.41
2024-01-14T07:41:53.857Z,96832.38
2024-01-14T07:44:21.357Z,96828.88
2024-01-14T07:46:48.036Z,96835.06
2024-01-14T07:49:16.185Z,96828.19
2024-01-14T07:51:42.955Z,96832.41
2024-01-14T07:54:09.979Z,96829.22
2024-01-14T07:56:36.695Z,96842.66
2024-01-14T07:59:03.338Z,96840.78
2024-01-14T08:01:31.394Z,96839.69
2024-01-14T08:03:58.423Z,96837.50
2024-01-14T08:06:25.635Z,96836.53
2024-01-14T08:08:52.602Z,96830.75
2024-01-14T08:11:38.016Z,96831.06
2024-01-14T08:14:05.686Z,96824.81
2024-01-14T08:16:32.314Z,96814.28
2024-01-14T08:18:59.205Z,96826.75
2024-01-14T08:21:25.981Z,96812.44
2024-01-14T08:23:52.891Z,96815.47
2024-01-14T08:26:19.665Z,96811.06
2024-01-14T08:28:46.420Z,96805.78
2024-01-14T08:31:13.303Z,96808.97
2024-01-14T08:33:43.763Z,96806.28
2024-01-14T08:36:11.236Z,96806.03
2024-01-14T08:38:37.934Z,96801.03
2024-01-14T08:41:04.864Z,96805.50
2024-01-14T08:43:31.644Z,96807.09
2024-01-14T08:45:58.388Z,96815.50
2024-01-14T08:48:25.155Z,96808.81
2024-01-14T08:50:52.163Z,96806.69
2024-01-14T08:53:18.794Z,96797.16
2024-01-14T08:55:45.546Z,96798.50
2024-01-14T08:58:12.199Z,96789.09
2024-01-14T09:00:38.926Z,96780.34
2024-01-14T09:03:05.919Z,96787.31
2024-01-14T09:05:32.708Z,96777.44
2024-01-14T09:07:59.391Z,96781.94
2024-01-14T09:10:26.166Z,96783.00
2024-01-14T09:12:52.940Z,96778.63
2024-01-14T09:15:19.703Z,96770.84
2024-01-14T09:17:46.476Z,96767.56
2024-01-14T09:20:13.510Z,96770.19
2024-01-14T09:22:40.492Z,96774.84
2024-01-14T09:25:08.801Z,96769.81
2024-01-14T09:27:36.722Z,96767.16
2024-01-14T09:30:03.701Z,96758.53
2024-01-14T09:32:30.503Z,96760.53
2024-01-14T09:34:57.459Z,96765.63
2024-01-14T09:37:24.519Z,96771.75
2024-01-14T09:40:10.069Z,96771.22
2024-01-14T09:42:40.542Z,96759.19
2024-01-14T09:45:07.578Z,96765.03
2024-01-14T09:47:34.971Z,96767.56
2024-01-14T09:50:02.450Z,96769.53
2024-01-14T09:52:30.646Z,96755.59
2024-01-14T09:54:57.620Z,96763.09
2024-01-14T09:57:25.006Z,96756.78
2024-01-14T09:59:52.345Z,96757.34
2024-01-14T10:02:20.080Z,96750.41
2024-01-14T10:04:48.222Z,96750.44
2024-01-14T10:07:15.598Z,96746.88
2024-01-14T10:09:43.920Z,96745.19
2024-01-14T10:12:11.468Z,96742.31
2024-01-14T10:14:38.917Z,96737.00
2024-01-14T10:17:05.889Z,96731.06
2024-01-14T10:19:32.840Z,96724.56
2024-01-14T10:22:14.516Z,96718.72
2024-01-14T10:24:50.642Z,96714.25
2024-01-14T10:27:33.690Z,96707.34
2024-01-14T10:30:05.719Z,96698.28
2024-01-14T10:33:14.858Z,96687.94
2024-01-14T10:35:20.381Z,96688.91
2024-01-14T10:37:47.428Z,96680.72
2024-01-14T10:40:14.444Z,96674.00
2024-01-14T10:42:41.235Z,96670.25
2024-01-14T10:45:08.524Z,96676.31
2024-01-14T10:47:36.007Z,96670.50
2024-01-14T10:50:03.122Z,96668.13
2024-01-14T10:52:34.147Z,96668.69
2024-01-14T10:55:12.632Z,96660.78
2024-01-14T10:57:39.770Z,96649.25
2024-01-14T11:00:10.942Z,96649.94
2024-01-14T11:02:39.300Z,96648.28
2024-01-14T11:05:10.038Z,96632.13
2024-01-14T11:07:55.516Z,96633.63
2024-01-14T11:10:22.320Z,96617.97
2024-01-14T11:12:54.941Z,96611.53
2024-01-14T11:15:28.944Z,96598.75
2024-01-14T11:18:07.595Z,96598.91
2024-01-14T11:20:47.045Z,96586.66
2024-01-14T11:23:24.417Z,96583.31
2024-01-14T11:25:51.245Z,96578.22
2024-01-14T11:28:18.224Z,96578.47
2024-01-14T11:30:58.729Z,96567.13
2024-01-14T11:33:33.554Z,96570.22
2024-01-14T11:36:01.965Z,96555.50
2024-01-14T11:38:38.954Z,96561.56
2024-01-14T11:41:31.200Z,96543.94
2024-01-14T11:44:03.682Z,96540.06
2024-01-14T11:46:39.548Z,96531.34
2024-01-14T11:49:24.786Z,96536.69
2024-01-14T11:51:55.574Z,96526.28
2024-01-14T11:54:24.250Z,96520.47
2024-01-14T11:56:51.890Z,96513.69
2024-01-14T11:59:33.697Z,96507.34
2024-01-14T12:02:15.079Z,96507.84
2024-01-14T12:04:41.959Z,96500.34
2024-01-14T12:07:08.889Z,96504.19
2024-01-14T12:09:35.920Z,96498.84
2024-01-14T12:12:06.502Z,96501.97
2024-01-14T12:14:38.214Z,96490.31
2024-01-14T12:17:11.366Z,96485.72
2024-01-14T12:19:38.311Z,96483.06
2024-01-14T12:22:05.332Z,96472.34
2024-01-14T12:24:32.335Z,96470.13
2024-01-14T12:26:59.415Z,96469.91
2024-01-14T12:29:26.238Z,96458.75
2024-01-14T12:31:56.771Z,96462.13
2024-01-14T12:34:24.773Z,96459.94
2024-01-14T12:36:54.376Z,96454.13
2024-01-14T12:39:22.213Z,96442.25
2024-01-14T12:41:54.246Z,96443.41
2024-01-14T12:44:23.121Z,96451.88
2024-01-14T12:46:56.464Z,96438.03
2024-01-14T12:49:26.224Z,96434.38
2024-01-14T12:52:02.729Z,96432.44
2024-01-14T12:54:29.756Z,96424.66
2024-01-14T12:57:04.565Z,96409.56
2024-01-14T12:59:32.639Z,96402.94
2024-01-14T13:02:01.793Z,96401.25
2024-01-14T13:04:28.785Z,96401.72
2024-01-14T13:06:58.896Z,96392.47
2024-01-14T13:09:27.160Z,96388.84
2024-01-14T13:11:53.897Z,96383.78
2024-01-14T13:14:20.614Z,96387.69
2024-01-14T13:16:53.826Z,96389.88
2024-01-14T13:19:22.236Z,96390.81
2024-01-14T13:21:49.861Z,96383.25
2024-01-14T13:24:16.905Z,96385.63
2024-01-14T13:26:43.930Z,96378.41
2024-01-14T13:29:12.026Z,96376.03
2024-01-14T13:31:41.269Z,96372.59
2024-01-14T13:34:09.351Z,96383.47
2024-01-14T13:36:36.787Z,96373.06
2024-01-14T13:39:05.871Z,96365.44
2024-01-14T13:41:33.689Z,96366.09
2024-01-14T13:44:12.412Z,96366.06
2024-01-14T13:46:48.037Z,96361.13
2024-01-14T13:49:15.571Z,96351.94
2024-01-14T13:51:42.869Z,96352.69
2024-01-14T13:54:28.686Z,96353.88
2024-01-14T13:56:56.098Z,96363.38
2024-01-14T13:59:23.611Z,96364.00
2024-01-14T14:01:50.975Z,96361.38
2024-01-14T14:04:25.355Z,96356.31
2024-01-14T14:07:11.929Z,96353.47
2024-01-14T14:09:38.796Z,96357.88
2024-01-14T14:12:06.099Z,96364.19
2024-01-14T14:14:33.799Z,96359.38
2024-01-14T14:17:00.493Z,96360.38
2024-01-14T14:19:27.367Z,96360.44
2024-01-14T14:22:00.273Z,96355.31
2024-01-14T14:24:30.625Z,96356.06
2024-01-14T14:26:57.859Z,96357.34
2024-01-14T14:29:26.326Z,96359.06
2024-01-14T14:31:54.393Z,96359.34
2024-01-14T14:34:22.061Z,96358.13
2024-01-14T14:36:50.118Z,96359.53
2024-01-14T14:39:18.292Z,96351.28
2024-01-14T14:41:45.328Z,96357.66
2024-01-14T14:44:12.252Z,96351.41
2024-01-14T14:46:40.154Z,96357.69
2024-01-14T14:49:07.225Z,96354.59
2024-01-14T14:51:39.199Z,96345.13
2024-01-14T14:54:11.809Z,96341.31
2024-01-14T14:56:39.085Z,96330.97
2024-01-14T14:59:06.286Z,96328.59
2024-01-14T15:01:41.180Z,96330.31
2024-01-14T15:04:11.964Z,96324.25
2024-01-14T15:06:40.397Z,96322.59
2024-01-14T15:09:09.397Z,96326.94
2024-01-14T15:11:39.363Z,96329.63
2024-01-14T15:14:10.914Z,96326.25
2024-01-14T15:16:38.114Z,96323.81
2024-01-14T15:19:05.396Z,96306.41
2024-01-14T15:21:52.509Z,96319.72
2024-01-14T15:24:19.425Z,96311.03
2024-01-14T15:26:46.678Z,96313.69
2024-01-14T15:29:13.461Z,96306.16
2024-01-14T15:31:40.417Z,96314.63
2024-01-14T15:34:07.691Z,96319.00
2024-01-14T15:36:34.773Z,96320.69
2024-01-14T15:39:01.707Z,96316.81
2024-01-14T15:41:29.442Z,96314.13
2024-01-14T15:43:56.228Z,96320.69
2024-01-14T15:46:22.934Z,96315.34
2024-01-14T15:48:51.496Z,96309.81
2024-01-14T15:51:19.293Z,96296.97
2024-01-14T15:53:46.134Z,96286.56
2024-01-14T15:56:13.116Z,96285.34
2024-01-14T15:58:41.504Z,96281.97
2024-01-14T16:01:11.991Z,96279.31
2024-01-14T16:03:43.482Z,96285.84
2024-01-14T16:06:12.213Z,96281.00
2024-01-14T16:08:38.854Z,96277.38
2024-01-14T16:11:07.312Z,96281.00
2024-01-14T16:13:38.149Z,96288.47
2024-01-14T16:16:06.450Z,96281.47
2024-01-14T16:18:36.625Z,96289.63
2024-01-14T16:21:06.433Z,96287.00
2024-01-14T16:23:39.502Z,96283.31
2024-01-14T16:26:08.296Z,96291.06
2024-01-14T16:28:35.215Z,96291.50
2024-01-14T16:31:10.481Z,96296.06
2024-01-14T16:33:47.088Z,96297.47
2024-01-14T16:36:16.367Z,96292.16
2024-01-14T16:38:44.236Z,96293.88
2024-01-14T16:41:11.593Z,96295.88
2024-01-14T16:43:38.599Z,96303.16
2024-01-14T16:46:06.569Z,96307.09
2024-01-14T16:48:34.419Z,96308.81
2024-01-14T16:51:08.638Z,96306.16
2024-01-14T16:53:43.648Z,96303.94
2024-01-14T16:56:13.259Z,96302.72
2024-01-14T16:58:42.375Z,96318.84
2024-01-14T17:01:15.806Z,96322.19
2024-01-14T17:03:46.674Z,96317.00
2024-01-14T17:06:15.923Z,96326.59
2024-01-14T17:08:45.544Z,96329.19
2024-01-14T17:11:14.361Z,96323.28
2024-01-14T17:13:41.762Z,96322.94
2024-01-14T17:16:10.663Z,96326.97
2024-01-14T17:18:40.366Z,96325.66
2024-01-14T17:21:08.072Z,96322.69
2024-01-14T17:23:35.377Z,96321.16
2024-01-14T17:26:07.584Z,96317.41
2024-01-14T17:28:54.230Z,96307.31
2024-01-14T17:31:21.176Z,96305.56
2024-01-14T17:33:49.226Z,96303.03
2024-01-14T17:36:18.120Z,96310.72
2024-01-14T17:38:46.514Z,96310.16
2024-01-14T17:41:13.378Z,96306.22
2024-01-14T17:43:40.805Z,96302.97
2024-01-14T17:46:09.725Z,96290.25
2024-01-14T17:48:41.661Z,96296.97
2024-01-14T17:51:10.293Z,96294.44
2024-01-14T17:53:42.631Z,96297.78
2024-01-14T17:56:09.620Z,96307.88
2024-01-14T17:58:36.383Z,96303.69
2024-01-14T18:01:05.583Z,96298.78
2024-01-14T18:03:32.630Z,96299.44
2024-01-14T18:06:00.018Z,96313.97
2024-01-14T18:08:26.946Z,96307.31
2024-01-14T18:10:53.656Z,96307.75
2024-01-14T18:13:21.398Z,96315.19
2024-01-14T18:15:48.968Z,96312.94
2024-01-14T18:18:16.529Z,96315.53
2024-01-14T18:20:44.187Z,96305.25
2024-01-14T18:23:13.550Z,96308.56
2024-01-14T18:25:46.081Z,96307.97
2024-01-14T18:28:14.256Z,96308.41
2024-01-14T18:30:41.339Z,96302.22
2024-01-14T18:33:11.748Z,96298.53
2024-01-14T18:35:45.603Z,96297.50
2024-01-14T18:38:14.670Z,96299.16
2024-01-14T18:40:41.812Z,96302.28
2024-01-14T18:43:09.969Z,96311.44
2024-01-14T18:45:37.849Z,96306.50
2024-01-14T18:48:06.963Z,96308.88
2024-01-14T18:50:35.133Z,96308.59
2024-01-14T18:53:02.500Z,96307.75
2024-01-14T18:55:29.236Z,96300.13
2024-01-14T18:57:56.149Z,96313.25
2024-01-14T19:00:22.999Z,96316.13
2024-01-14T19:02:50.062Z,96306.53
2024-01-14T19:05:18.023Z,96301.59
2024-01-14T19:07:45.550Z,96302.75
2024-01-14T19:10:12.404Z,96303.16
2024-01-14T19:12:39.212Z,96292.81
2024-01-14T19:15:06.913Z,96279.63
2024-01-14T19:17:34.252Z,96262.72
2024-01-14T19:20:01.715Z,96267.03
2024-01-14T19:22:28.920Z,96261.38
2024-01-14T19:24:55.838Z,96256.41
2024-01-14T19:27:23.324Z,96245.16
2024-01-14T19:29:50.529Z,96245.75
2024-01-14T19:32:17.411Z,96241.53
2024-01-14T19:34:44.542Z,96239.75
2024-01-14T19:37:11.689Z,96237.28
2024-01-14T19:39:42.975Z,96235.03
2024-01-14T19:42:11.661Z,96229.13
2024-01-14T19:44:38.765Z,96251.72
2024-01-14T19:47:05.876Z,96252.44
2024-01-14T19:49:32.764Z,96242.13
2024-01-14T19:51:59.823Z,96236.94
2024-01-14T19:54:26.654Z,96235.91
2024-01-14T19:56:54.294Z,96245.06
2024-01-14T19:59:24.124Z,96249.22
2024-01-14T20:01:50.981Z,96247.44
2024-01-14T20:04:17.938Z,96243.50
2024-01-14T20:06:50.769Z,96247.84
2024-01-14T20:09:23.760Z,96260.72
2024-01-14T20:11:53.765Z,96252.16
2024-01-14T20:14:21.086Z,96263.28
2024-01-14T20:16:49.023Z,96264.00
2024-01-14T20:19:16.443Z,96264.41
2024-01-14T20:21:43.296Z,96267.50
2024-01-14T20:24:10.794Z,96271.63
2024-01-14T20:26:57.547Z,96263.75
2024-01-14T20:29:24.388Z,96267.38
2024-01-14T20:31:51.152Z,96252.91
2024-01-14T20:34:18.418Z,96268.50
2024-01-14T20:36:45.580Z,96266.53
2024-01-14T20:39:12.367Z,96259.38
2024-01-14T20:41:39.001Z,96276.75
2024-01-14T20:44:06.272Z,96286.97
2024-01-14T20:46:33.005Z,96276.75
2024-01-14T20:48:59.794Z,96283.06
2024-01-14T20:51:27.232Z,96297.94
2024-01-14T20:53:53.965Z,96294.53
2024-01-14T20:56:20.888Z,96292.75
2024-01-14T20:58:47.562Z,96301.03
2024-01-14T21:01:15.475Z,96296.56
2024-01-14T21:03:42.582Z,96302.66
2024-01-14T21:06:14.842Z,96317.72
2024-01-14T21:08:43.086Z,96323.28
2024-01-14T21:11:09.689Z,96315.41
2024-01-14T21:13:36.451Z,96319.03
2024-01-14T21:16:03.191Z,96318.00
2024-01-14T21:18:30.029Z,96313.00
2024-01-14T21:20:57.288Z,96321.06
2024-01-14T21:23:24.081Z,96322.72
2024-01-14T21:25:50.823Z,96324.88
2024-01-14T21:28:18.546Z,96312.88
2024-01-14T21:30:45.360Z,96317.75
2024-01-14T21:33:12.283Z,96315.25
2024-01-14T21:35:39.013Z,96315.44
2024-01-14T21:38:06.268Z,96314.22
2024-01-14T21:40:32.995Z,96303.66
2024-01-14T21:42:59.723Z,96291.66
2024-01-14T21:45:28.618Z,96285.75
2024-01-14T21:47:55.705Z,96274.47
2024-01-14T21:50:22.836Z,96271.97
2024-01-14T21:52:49.772Z,96270.22
2024-01-14T21:55:16.490Z,96277.56
2024-01-14T21:57:43.429Z,96287.06
2024-01-14T22:00:11.023Z,96275.97
2024-01-14T22:02:38.397Z,96273.81
2024-01-14T22:05:06.571Z,96276.91
2024-01-14T22:07:33.827Z,96266.31
2024-01-14T22:10:01.162Z,96269.22
2024-01-14T22:12:28.134Z,96258.47
2024-01-14T22:14:54.827Z,96267.44
2024-01-14T22:17:21.610Z,96270.66
2024-01-14T22:19:48.508Z,96268.16
2024-01-14T22:22:15.422Z,96245.41
2024-01-14T22:24:45.980Z,96238.25
2024-01-14T22:27:13.026Z,96234.84
2024-01-14T22:29:40.232Z,96243.81
2024-01-14T22:32:07.400Z,96249.91
2024-01-14T22:34:34.576Z,96247.94
2024-01-14T22:37:01.502Z,96252.41
2024-01-14T22:39:28.276Z,96245.06
2024-01-14T22:41:55.011Z,96244.34
2024-01-14T22:44:22.136Z,96253.66
2024-01-14T22:46:49.064Z,96244.53
2024-01-14T22:49:16.316Z,96256.00
2024-01-14T22:51:44.013Z,96255.50
2024-01-14T22:54:12.390Z,96274.13
2024-01-14T22:56:39.188Z,96272.88
2024-01-14T22:59:05.905Z,96266.75
2024-01-14T23:01:32.821Z,96271.63
2024-01-14T23:03:59.746Z,96272.34
2024-01-14T23:06:27.087Z,96261.59
2024-01-14T23:08:53.950Z,96265.72
2024-01-14T23:11:20.727Z,96260.88
2024-01-14T23:13:47.352Z,96256.22
2024-01-14T23:16:14.185Z,96253.53
2024-01-14T23:18:41.230Z,96259.09
2024-01-14T23:21:08.114Z,96259.81
2024-01-14T23:23:34.766Z,96257.13
2024-01-14T23:26:01.780Z,96255.88
2024-01-14T23:28:28.753Z,96253.91
2024-01-14T23:30:55.712Z,96253.91
2024-01-14T23:33:22.571Z,96244.59
2024-01-14T23:35:49.392Z,96251.41
2024-01-14T23:38:16.047Z,96239.94
2024-01-14T23:40:42.874Z,96249.97
2024-01-14T23:43:09.715Z,96249.97
2024-01-14T23:45:36.465Z,96246.75
2024-01-14T23:48:03.424Z,96241.19
2024-01-14T23:50:30.703Z,96245.31
2024-01-14T23:52:57.388Z,96239.94
2024-01-14T23:55:24.158Z,96241.91
2024-01-14T23:57:50.860Z,96246.56
